Goliath — WDD5869 — position and weather

sailwx.info

Track history (hours):
 
Tides and Currents Weather Stations Pressure Air Temp Water Temp Dewpoint Dewpoint Depression Visibility Wind Speed Wind Dir Waves Ship Positions

Goliath

Owner: Seabulk Towing Services,Inc., Groves, TX. More information available from US FCC via Universal Licensing System and Coast Guard Vessel Documentation Center.

Last reported at 2017-Sep-24 03:00 UTC. Time now 2017-Sep-24 03:22 UTC.
Position N 30°13' W 093°15'.

Length 32 m; draft 14.8 m.

Type: Tug. MMSI: 366268061.

Date/timePositionNaut miles runAvg speedWind from/ knotsBaromVisibWave heightAir tempDewpointWater temp
2017-Sep-24 03:00N 30°13' W 093°15'0 0.0
2017-Sep-24 02:30N 30°13' W 093°15'0 0.0
2017-Sep-24 02:00N 30°13' W 093°15'0 0.0
2017-Sep-24 01:30N 30°13' W 093°15'0 0.0
2017-Sep-24 01:00N 30°13' W 093°15'0 0.0
2017-Sep-24 00:30N 30°13' W 093°15'0 0.0
2017-Sep-24 00:00N 30°13' W 093°15'0 0.0
2017-Sep-23 23:30N 30°13' W 093°15'0 0.0
2017-Sep-23 23:00N 30°13' W 093°15'0 0.0
2017-Sep-23 22:30N 30°13' W 093°15'0 0.0
2017-Sep-23 22:00N 30°13' W 093°15'0 0.0
2017-Sep-23 21:30N 30°13' W 093°15'0 0.0
2017-Sep-23 21:00N 30°13' W 093°15'0 0.0
2017-Sep-23 20:30N 30°13' W 093°15'0 0.0
2017-Sep-23 20:00N 30°13' W 093°15'0 0.0
2017-Sep-22 02:00N 30°13' W 093°15'0 0.0
2017-Sep-22 01:30N 30°13' W 093°15'0 0.0
2017-Sep-22 01:00N 30°13' W 093°15'0 0.0
2017-Sep-22 00:30N 30°13' W 093°15'0 0.0
2017-Sep-22 00:00N 30°13' W 093°15'0 0.0
2017-Sep-21 23:30N 30°13' W 093°15'0 0.0
2017-Sep-21 23:01N 30°13' W 093°15'1 1.4
2017-Sep-21 22:31N 30°14' W 093°15'0 0.0
2017-Sep-21 22:00N 30°14' W 093°15'1 2.2
2017-Sep-21 21:31N 30°13' W 093°15'0 0.0
2017-Sep-21 21:01N 30°13' W 093°15'0 0.0
2017-Sep-21 20:30N 30°13' W 093°15'0 0.0
2017-Sep-21 20:00N 30°13' W 093°15'0 0.8
2017-Sep-21 19:27N 30°13' W 093°15'0 0.0
2017-Sep-21 19:00N 30°13' W 093°15'0 0.0
2017-Sep-21 18:31N 30°13' W 093°15'0 0.0
2017-Sep-21 18:01N 30°13' W 093°15'0 0.0
2017-Sep-21 17:30N 30°13' W 093°15'0 0.0
2017-Sep-21 17:00N 30°13' W 093°15'0 0.0
2017-Sep-21 16:24N 30°13' W 093°15'0 0.0
2017-Sep-21 16:01N 30°13' W 093°15'0 0.0
2017-Sep-21 15:30N 30°13' W 093°15'0 0.0
2017-Sep-21 15:01N 30°13' W 093°15'0 0.0
2017-Sep-21 14:30N 30°13' W 093°15'1 1.1
2017-Sep-21 14:01N 30°13' W 093°16'4 7.7
2017-Sep-21 13:30N 30°10' W 093°19'0 0.6
2017-Sep-21 13:01N 30°10' W 093°19'1 1.4
2017-Sep-21 12:30N 30°11' W 093°19'0 0.1
2017-Sep-21 12:00N 30°11' W 093°19'3 6.3
2017-Sep-21 11:31N 30°12' W 093°16'1 1.7
2017-Sep-21 11:00N 30°13' W 093°15'0 0.0
2017-Sep-21 10:30N 30°13' W 093°15'0 0.0
2017-Sep-21 10:01N 30°13' W 093°15'0 0.0
2017-Sep-21 09:30N 30°13' W 093°15'0 0.0
2017-Sep-21 09:00N 30°13' W 093°15'0 0.0
2017-Sep-21 08:31N 30°13' W 093°15'0 0.0
2017-Sep-21 08:01N 30°13' W 093°15'0 0.0
2017-Sep-21 07:30N 30°13' W 093°15'0 0.0
2017-Sep-21 07:00N 30°13' W 093°15'0 0.0
2017-Sep-21 06:30N 30°13' W 093°15'0 0.0
2017-Sep-21 06:00N 30°13' W 093°15'0 0.0
2017-Sep-21 05:30N 30°13' W 093°15'0 0.0
2017-Sep-21 05:00N 30°13' W 093°15'0 0.0
2017-Sep-21 04:30N 30°13' W 093°15'0 0.0
2017-Sep-21 04:01N 30°13' W 093°15'0 0.0
2017-Sep-21 03:30N 30°13' W 093°15'0 0.0
2017-Sep-21 03:01N 30°13' W 093°15'0 0.0
2017-Sep-21 02:30N 30°13' W 093°15'0 0.0
2017-Sep-21 02:00N 30°13' W 093°15'0 0.0
2017-Sep-21 01:31N 30°13' W 093°15'0 0.0
2017-Sep-21 01:00N 30°13' W 093°15'0 0.0
2017-Sep-21 00:30N 30°13' W 093°15'0 0.0
2017-Sep-21 00:01N 30°13' W 093°15'0 0.0
2017-Sep-20 23:30N 30°13' W 093°15'0 0.0
2017-Sep-20 23:00N 30°13' W 093°15'0 0.0
2017-Sep-20 22:30N 30°13' W 093°15'0 0.0
2017-Sep-20 22:00N 30°13' W 093°15'0 0.0
2017-Sep-20 21:30N 30°13' W 093°15'0 0.0
2017-Sep-20 21:00N 30°13' W 093°15'0 0.0
2017-Sep-20 20:30N 30°13' W 093°15'0 0.0
2017-Sep-20 20:00N 30°13' W 093°15'0 0.0
2017-Sep-20 19:31N 30°13' W 093°15'0 0.0
2017-Sep-20 19:00N 30°13' W 093°15'0 0.0
2017-Sep-20 18:30N 30°13' W 093°15'0 0.0
2017-Sep-20 18:00N 30°13' W 093°15'0 0.0
2017-Sep-20 17:31N 30°13' W 093°15'0 0.0
2017-Sep-20 17:00N 30°13' W 093°15'0 0.0
2017-Sep-20 16:30N 30°13' W 093°15'0 0.0
2017-Sep-20 16:00N 30°13' W 093°15'0 0.0
2017-Sep-20 15:31N 30°13' W 093°15'0 0.0
2017-Sep-20 15:00N 30°13' W 093°15'0 0.0
2017-Sep-20 14:00N 30°13' W 093°15'0 0.0
2017-Sep-20 13:30N 30°13' W 093°15'0 0.0
2017-Sep-20 13:00N 30°13' W 093°15'0 0.0
2017-Sep-20 12:30N 30°13' W 093°15'0 0.0
2017-Sep-20 12:00N 30°13' W 093°15'0 0.0
2017-Sep-20 11:30N 30°13' W 093°15'0 0.0
2017-Sep-20 11:00N 30°13' W 093°15'0 0.0
2017-Sep-20 10:30N 30°13' W 093°15'0 0.0
2017-Sep-20 10:00N 30°13' W 093°15'0 0.0
2017-Sep-20 09:30N 30°13' W 093°15'0 0.0
2017-Sep-20 09:00N 30°13' W 093°15'0 0.0
2017-Sep-20 08:30N 30°13' W 093°15'0 0.0
2017-Sep-20 08:00N 30°13' W 093°15'0 0.0
2017-Sep-20 07:30N 30°13' W 093°15'0 0.0
2017-Sep-20 07:01N 30°13' W 093°15'0 0.0
2017-Sep-20 06:30N 30°13' W 093°15'0 0.0
2017-Sep-20 06:00N 30°13' W 093°15'0 0.0
2017-Sep-20 05:30N 30°13' W 093°15'0 0.0
2017-Sep-20 05:00N 30°13' W 093°15'0 0.0
2017-Sep-20 04:30N 30°13' W 093°15'0 0.0
2017-Sep-20 04:00N 30°13' W 093°15'0 0.0
2017-Sep-20 03:30N 30°13' W 093°15'0 0.0
2017-Sep-20 03:00N 30°13' W 093°15'0 0.0
2017-Sep-20 02:30N 30°13' W 093°15'0 0.0
2017-Sep-20 02:00N 30°13' W 093°15'0 0.0
2017-Sep-20 01:30N 30°13' W 093°15'0 0.0
2017-Sep-20 01:01N 30°13' W 093°15'0 0.0
2017-Sep-20 00:30N 30°13' W 093°15'0 0.0
2017-Sep-20 00:00N 30°13' W 093°15'0 0.0
2017-Sep-19 23:30N 30°13' W 093°15'0 0.0
2017-Sep-19 23:00N 30°13' W 093°15'0 0.4
2017-Sep-19 22:31N 30°13' W 093°15'0 0.0
2017-Sep-19 21:58N 30°13' W 093°15'1 2.7
2017-Sep-19 21:30N 30°12' W 093°16'0 0.1
2017-Sep-19 21:01N 30°12' W 093°16'0 0.0
2017-Sep-19 20:30N 30°12' W 093°16'0 0.0
2017-Sep-19 20:00N 30°12' W 093°16'1 2.2
2017-Sep-19 19:30N 30°13' W 093°15'0 0.0
2017-Sep-19 19:00N 30°13' W 093°15'0 0.0
2017-Sep-19 18:30N 30°13' W 093°15'0 0.0
2017-Sep-19 18:00N 30°13' W 093°15'0 0.0
2017-Sep-19 17:30N 30°13' W 093°15'0 0.0
2017-Sep-19 17:00N 30°13' W 093°15'0 0.0
2017-Sep-19 16:30N 30°13' W 093°15'0 0.0
2017-Sep-19 16:00N 30°13' W 093°15'0 0.0
2017-Sep-19 15:30N 30°13' W 093°15'0 0.0
2017-Sep-19 15:00N 30°13' W 093°15'0 0.0
2017-Sep-19 14:31N 30°13' W 093°15'0 0.0
2017-Sep-19 14:00N 30°13' W 093°15'0 0.0
2017-Sep-19 13:31N 30°13' W 093°15'0 0.0
2017-Sep-19 13:00N 30°13' W 093°15'0 0.0
2017-Sep-19 12:30N 30°13' W 093°15'0 0.0
2017-Sep-19 12:00N 30°13' W 093°15'0 0.0
2017-Sep-19 11:30N 30°13' W 093°15'0 0.0
2017-Sep-19 11:00N 30°13' W 093°15'0 0.0
2017-Sep-19 10:30N 30°13' W 093°15'0 0.0
2017-Sep-19 10:00N 30°13' W 093°15'0 0.0
2017-Sep-19 09:30N 30°13' W 093°15'0 0.0
2017-Sep-19 09:00N 30°13' W 093°15'0 0.0
2017-Sep-19 08:30N 30°13' W 093°15'0 0.0
2017-Sep-19 08:00N 30°13' W 093°15'0 0.0
2017-Sep-19 07:30N 30°13' W 093°15'0 0.0
2017-Sep-19 07:00N 30°13' W 093°15'0 0.0
2017-Sep-19 06:30N 30°13' W 093°15'0 0.0
2017-Sep-19 06:00N 30°13' W 093°15'0 0.0
2017-Sep-19 05:30N 30°13' W 093°15'0 0.0
2017-Sep-19 05:00N 30°13' W 093°15'0 0.0
2017-Sep-19 04:30N 30°13' W 093°15'0 0.0
2017-Sep-19 04:00N 30°13' W 093°15'0 0.0
2017-Sep-19 03:30N 30°13' W 093°15'0 0.0
2017-Sep-19 03:00N 30°13' W 093°15'0 0.0
2017-Sep-19 02:30N 30°13' W 093°15'0 0.0
2017-Sep-19 02:00N 30°13' W 093°15'0 0.0
2017-Sep-19 01:30N 30°13' W 093°15'0 0.0
2017-Sep-19 01:00N 30°13' W 093°15'0 0.0
2017-Sep-19 00:30N 30°13' W 093°15'0 0.0
2017-Sep-19 00:00N 30°13' W 093°15'0 0.0
2017-Sep-18 23:30N 30°13' W 093°15'0 0.0
2017-Sep-18 23:00N 30°13' W 093°15'0 0.0
2017-Sep-18 22:30N 30°13' W 093°15'0 0.0
2017-Sep-18 22:00N 30°13' W 093°15'0 0.0
2017-Sep-18 21:30N 30°13' W 093°15'0 0.0
2017-Sep-18 21:00N 30°13' W 093°15'0 0.0
2017-Sep-18 20:30N 30°13' W 093°15'0 0.0
2017-Sep-18 20:00N 30°13' W 093°15'0 0.0
2017-Sep-18 19:30N 30°13' W 093°15'0 0.0
2017-Sep-18 19:00N 30°13' W 093°15'0 0.0
2017-Sep-18 18:30N 30°13' W 093°15'0 0.0
2017-Sep-18 18:00N 30°13' W 093°15'0 0.0
2017-Sep-18 17:30N 30°13' W 093°15'0 0.0
2017-Sep-18 17:00N 30°13' W 093°15'0 0.0
2017-Sep-18 16:30N 30°13' W 093°15'0 0.0
2017-Sep-18 16:00N 30°13' W 093°15'0 0.0
2017-Sep-18 15:30N 30°13' W 093°15'0 0.0
2017-Sep-18 15:00N 30°13' W 093°15'0 0.0
2017-Sep-18 14:30N 30°13' W 093°15'0 0.0
2017-Sep-18 14:00N 30°13' W 093°15'0 0.0
2017-Sep-18 13:30N 30°13' W 093°15'0 0.0
2017-Sep-18 13:00N 30°13' W 093°15'0 0.0
2017-Sep-18 12:30N 30°13' W 093°15'0 0.0
2017-Sep-18 12:00N 30°13' W 093°15'0 0.0
2017-Sep-18 11:30N 30°13' W 093°15'0 0.0
2017-Sep-18 11:00N 30°13' W 093°15'0 0.0
2017-Sep-18 10:30N 30°13' W 093°15'0 0.0
2017-Sep-18 10:00N 30°13' W 093°15'0 0.0
2017-Sep-18 09:30N 30°13' W 093°15'0 0.0
2017-Sep-18 09:00N 30°13' W 093°15'0 0.0
2017-Sep-18 08:30N 30°13' W 093°15'0 0.0
2017-Sep-18 08:00N 30°13' W 093°15'0 0.0
2017-Sep-18 07:30N 30°13' W 093°15'0 0.0
2017-Sep-18 07:00N 30°13' W 093°15'0 0.0
2017-Sep-18 06:30N 30°13' W 093°15'0 0.0
2017-Sep-18 06:00N 30°13' W 093°15'0 0.0
2017-Sep-18 05:30N 30°13' W 093°15'0 0.0
2017-Sep-18 05:00N 30°13' W 093°15'0 0.0
2017-Sep-18 04:30N 30°13' W 093°15'0 0.0
2017-Sep-18 04:00N 30°13' W 093°15'0 0.0
2017-Sep-18 03:30N 30°13' W 093°15'0 0.0
2017-Sep-18 03:00N 30°13' W 093°15'0 0.0
2017-Sep-18 02:30N 30°13' W 093°15'0 0.0
2017-Sep-18 02:00N 30°13' W 093°15'0 0.0
2017-Sep-18 01:30N 30°13' W 093°15'0 0.0
2017-Sep-18 01:00N 30°13' W 093°15'0 0.0
2017-Sep-18 00:30N 30°13' W 093°15'0 0.0
2017-Sep-18 00:00N 30°13' W 093°15'0 0.0
2017-Sep-17 23:30N 30°13' W 093°15'0 0.0
2017-Sep-17 23:00N 30°13' W 093°15'0 0.0
2017-Sep-17 22:30N 30°13' W 093°15'0 0.0
2017-Sep-17 22:00N 30°13' W 093°15'0 0.0
2017-Sep-17 21:30N 30°13' W 093°15'0 0.0
2017-Sep-17 21:00N 30°13' W 093°15'0 0.0
2017-Sep-17 20:30N 30°13' W 093°15'0 0.0
2017-Sep-17 20:00N 30°13' W 093°15'0 0.0
2017-Sep-17 19:30N 30°13' W 093°15'0 0.0
2017-Sep-17 19:00N 30°13' W 093°15'0 0.0
2017-Sep-17 18:30N 30°13' W 093°15'0 0.0
2017-Sep-17 18:00N 30°13' W 093°15'0 0.0
2017-Sep-17 17:30N 30°13' W 093°15'0 0.0
2017-Sep-17 17:00N 30°13' W 093°15'0 0.0
2017-Sep-17 16:30N 30°13' W 093°15'0 0.0
2017-Sep-17 16:00N 30°13' W 093°15'0 0.0
2017-Sep-17 15:30N 30°13' W 093°15'0 0.0
2017-Sep-17 15:00N 30°13' W 093°15'0 0.0
2017-Sep-17 14:30N 30°13' W 093°15'0 0.0
2017-Sep-17 14:00N 30°13' W 093°15'0 0.0
2017-Sep-17 13:30N 30°13' W 093°15'0 0.0
2017-Sep-17 13:00N 30°13' W 093°15'0 0.0
2017-Sep-17 12:30N 30°13' W 093°15'0 0.0
2017-Sep-17 12:00N 30°13' W 093°15'0 0.0
2017-Sep-17 11:30N 30°13' W 093°15'0 0.0
2017-Sep-17 11:00N 30°13' W 093°15'0 0.0
2017-Sep-17 10:30N 30°13' W 093°15'0 0.0
2017-Sep-17 10:00N 30°13' W 093°15'0 0.0
2017-Sep-17 09:30N 30°13' W 093°15'0 0.0
2017-Sep-17 09:00N 30°13' W 093°15'0 0.0
2017-Sep-17 08:30N 30°13' W 093°15'0 0.0
2017-Sep-17 08:00N 30°13' W 093°15'0 0.0
2017-Sep-17 07:30N 30°13' W 093°15'0 0.0
2017-Sep-17 07:00N 30°13' W 093°15'0 0.0
2017-Sep-17 06:30N 30°13' W 093°15'0 0.0
2017-Sep-17 06:00N 30°13' W 093°15'0 0.0
2017-Sep-17 05:30N 30°13' W 093°15'0 0.0
2017-Sep-17 04:57N 30°13' W 093°15'0 0.0
2017-Sep-17 04:30N 30°13' W 093°15'0 0.0
2017-Sep-17 04:00N 30°13' W 093°15'0 0.0
2017-Sep-17 03:30N 30°13' W 093°15'0 0.0
2017-Sep-17 03:00N 30°13' W 093°15'0 0.0
2017-Sep-17 02:30N 30°13' W 093°15'1 2.8
2017-Sep-17 02:00N 30°12' W 093°17'2 3.3
2017-Sep-17 01:30N 30°13' W 093°15'1 1.3
2017-Sep-17 00:56N 30°14' W 093°15'1 1.7
2017-Sep-17 00:30N 30°13' W 093°15'1 1.6
2017-Sep-17 00:00N 30°13' W 093°15'0 0.0
2017-Sep-16 23:30N 30°13' W 093°15'0 0.0
2017-Sep-16 23:00N 30°13' W 093°15'0 0.0
2017-Sep-16 22:30N 30°13' W 093°15'0 0.0
2017-Sep-16 22:00N 30°13' W 093°15'0 0.0
2017-Sep-16 21:30N 30°13' W 093°15'0 0.0
2017-Sep-16 21:00N 30°13' W 093°15'0 0.0
2017-Sep-16 20:30N 30°13' W 093°15'0 0.0
2017-Sep-16 20:00N 30°13' W 093°15'0 0.0
2017-Sep-16 19:30N 30°13' W 093°15'0 0.0
2017-Sep-16 19:00N 30°13' W 093°15'0 0.0
2017-Sep-16 18:30N 30°13' W 093°15'0 0.0
2017-Sep-16 18:00N 30°13' W 093°15'0 0.0
2017-Sep-16 17:30N 30°13' W 093°15'0 0.0
2017-Sep-16 17:00N 30°13' W 093°15'0 0.0
2017-Sep-16 16:30N 30°13' W 093°15'0 0.0
2017-Sep-16 16:00N 30°13' W 093°15'0 0.0
2017-Sep-16 15:30N 30°13' W 093°15'0 0.0
2017-Sep-16 15:00N 30°13' W 093°15'0 0.0
2017-Sep-16 14:30N 30°13' W 093°15'0 0.0
2017-Sep-16 14:00N 30°13' W 093°15'0 0.0
2017-Sep-16 13:30N 30°13' W 093°15'0 0.0
2017-Sep-16 13:00N 30°13' W 093°15'0 0.0
2017-Sep-16 12:30N 30°13' W 093°15'0 0.0
2017-Sep-16 12:00N 30°13' W 093°15'0 0.0
2017-Sep-16 11:30N 30°13' W 093°15'0 0.0
2017-Sep-16 11:00N 30°13' W 093°15'0 0.0
2017-Sep-16 10:30N 30°13' W 093°15'1 2.0
2017-Sep-16 10:00N 30°12' W 093°16'3 5.0
2017-Sep-16 09:30N 30°11' W 093°19'0 0.1
2017-Sep-16 09:00N 30°11' W 093°19'0 0.8
2017-Sep-16 08:30N 30°11' W 093°19'3 6.0
2017-Sep-16 08:00N 30°12' W 093°16'1 1.8
2017-Sep-16 07:30N 30°13' W 093°15'0 0.0
2017-Sep-16 07:00N 30°13' W 093°15'0 0.0
2017-Sep-16 06:30N 30°13' W 093°15'0 0.0
2017-Sep-16 06:00N 30°13' W 093°15'0 0.0
2017-Sep-16 05:30N 30°13' W 093°15'0 0.0
2017-Sep-16 05:00N 30°13' W 093°15'0 0.0
2017-Sep-16 04:30N 30°13' W 093°15'0 0.0
2017-Sep-16 04:00N 30°13' W 093°15'0 0.0
2017-Sep-16 03:30N 30°13' W 093°15'0 0.0
2017-Sep-16 03:00N 30°13' W 093°15'0 0.0
2017-Sep-16 02:30N 30°13' W 093°15'0 0.0
2017-Sep-16 02:00N 30°13' W 093°15'0 0.0
2017-Sep-16 01:28N 30°13' W 093°15'0 0.0
2017-Sep-16 01:00N 30°13' W 093°15'0 0.0
2017-Sep-16 00:30N 30°13' W 093°15'0 0.0
2017-Sep-16 00:00N 30°13' W 093°15'0 0.0
2017-Sep-15 23:30N 30°13' W 093°15'0 0.0
2017-Sep-15 23:00N 30°13' W 093°15'0 0.0
2017-Sep-15 22:30N 30°13' W 093°15'0 0.0
2017-Sep-15 22:00N 30°13' W 093°15'0 0.0
2017-Sep-15 21:30N 30°13' W 093°15'0 0.0
2017-Sep-15 21:00N 30°13' W 093°15'0 0.0
2017-Sep-15 20:30N 30°13' W 093°15'0 0.0
2017-Sep-15 20:00N 30°13' W 093°15'0 0.0
2017-Sep-15 19:30N 30°13' W 093°15'0 0.0
2017-Sep-15 19:00N 30°13' W 093°15'0 0.0
2017-Sep-15 18:30N 30°13' W 093°15'0 0.0
2017-Sep-15 18:00N 30°13' W 093°15'0 0.0
2017-Sep-15 17:30N 30°13' W 093°15'0 0.0
2017-Sep-15 17:00N 30°13' W 093°15'0 0.0
2017-Sep-15 16:30N 30°13' W 093°15'0 0.0
2017-Sep-15 16:00N 30°13' W 093°15'0 0.0
2017-Sep-15 15:30N 30°13' W 093°15'0 0.0
2017-Sep-15 15:00N 30°13' W 093°15'0 0.0
2017-Sep-15 14:30N 30°13' W 093°15'0 0.0
2017-Sep-15 14:00N 30°13' W 093°15'0 0.0
2017-Sep-15 13:30N 30°13' W 093°15'0 0.0
2017-Sep-15 13:00N 30°13' W 093°15'0 0.0
2017-Sep-15 12:30N 30°13' W 093°15'0 0.0
2017-Sep-15 12:00N 30°13' W 093°15'0 0.0
2017-Sep-15 11:30N 30°13' W 093°15'0 0.0
2017-Sep-15 11:00N 30°13' W 093°15'0 0.0
2017-Sep-15 10:30N 30°13' W 093°15'0 0.0
2017-Sep-15 10:00N 30°13' W 093°15'0 0.0
2017-Sep-15 09:30N 30°13' W 093°15'0 0.0
2017-Sep-15 09:00N 30°13' W 093°15'0 0.0
2017-Sep-15 08:30N 30°13' W 093°15'0 0.0
2017-Sep-15 08:00N 30°13' W 093°15'0 0.0
2017-Sep-15 07:30N 30°13' W 093°15'0 0.0
2017-Sep-15 07:00N 30°13' W 093°15'0 0.0
2017-Sep-15 06:30N 30°13' W 093°15'0 0.0
2017-Sep-15 06:00N 30°13' W 093°15'0 0.0
2017-Sep-15 05:30N 30°13' W 093°15'0 0.0
2017-Sep-15 05:00N 30°13' W 093°15'0 0.0
2017-Sep-15 04:30N 30°13' W 093°15'0 0.0
2017-Sep-15 04:00N 30°13' W 093°15'0 0.0
2017-Sep-15 03:30N 30°13' W 093°15'0 0.0
2017-Sep-15 03:00N 30°13' W 093°15'0 0.0
2017-Sep-15 02:30N 30°13' W 093°15'0 0.0
2017-Sep-15 02:00N 30°13' W 093°15'0 0.0
2017-Sep-15 01:30N 30°13' W 093°15'0 0.0
2017-Sep-15 01:00N 30°13' W 093°15'0 0.0
2017-Sep-15 00:30N 30°13' W 093°15'0 0.0
2017-Sep-15 00:00N 30°13' W 093°15'3 5.9
2017-Sep-14 23:30N 30°11' W 093°18'1 1.1
2017-Sep-14 23:00N 30°11' W 093°19'0 0.0
2017-Sep-14 22:30N 30°11' W 093°19'0 0.2
2017-Sep-14 22:00N 30°11' W 093°19'1 2.6
2017-Sep-14 21:30N 30°10' W 093°19'0 0.0
2017-Sep-14 21:00N 30°10' W 093°19'3 5.6
2017-Sep-14 20:30N 30°12' W 093°17'2 4.0
2017-Sep-14 20:00N 30°13' W 093°15'0 0.0
2017-Sep-14 19:30N 30°13' W 093°15'  
Track history (hours):
 
Tides and Currents Weather Stations Pressure Air Temp Water Temp Dewpoint Dewpoint Depression Visibility Wind Speed Wind Dir Waves Ship Positions

Goliath

Owner: Seabulk Towing Services,Inc., Groves, TX. More information available from US FCC via Universal Licensing System and Coast Guard Vessel Documentation Center.

Last reported at 2017-Sep-24 03:00 UTC. Time now 2017-Sep-24 03:22 UTC.
Position N 30°13' W 093°15'.

Length 32 m; draft 14.8 m.

Type: Tug. MMSI: 366268061.

Date/timePositionNaut miles runAvg speedWind from/ knotsBaromVisibWave heightAir tempDewpointWater temp
2017-Sep-24 03:00N 30°13' W 093°15'0 0.0
2017-Sep-24 02:30N 30°13' W 093°15'0 0.0
2017-Sep-24 02:00N 30°13' W 093°15'0 0.0
2017-Sep-24 01:30N 30°13' W 093°15'0 0.0
2017-Sep-24 01:00N 30°13' W 093°15'0 0.0
2017-Sep-24 00:30N 30°13' W 093°15'0 0.0
2017-Sep-24 00:00N 30°13' W 093°15'0 0.0
2017-Sep-23 23:30N 30°13' W 093°15'0 0.0
2017-Sep-23 23:00N 30°13' W 093°15'0 0.0
2017-Sep-23 22:30N 30°13' W 093°15'0 0.0
2017-Sep-23 22:00N 30°13' W 093°15'0 0.0
2017-Sep-23 21:30N 30°13' W 093°15'0 0.0
2017-Sep-23 21:00N 30°13' W 093°15'0 0.0
2017-Sep-23 20:30N 30°13' W 093°15'0 0.0
2017-Sep-23 20:00N 30°13' W 093°15'0 0.0
2017-Sep-22 02:00N 30°13' W 093°15'0 0.0
2017-Sep-22 01:30N 30°13' W 093°15'0 0.0
2017-Sep-22 01:00N 30°13' W 093°15'0 0.0
2017-Sep-22 00:30N 30°13' W 093°15'0 0.0
2017-Sep-22 00:00N 30°13' W 093°15'0 0.0
2017-Sep-21 23:30N 30°13' W 093°15'0 0.0
2017-Sep-21 23:01N 30°13' W 093°15'1 1.4
2017-Sep-21 22:31N 30°14' W 093°15'0 0.0
2017-Sep-21 22:00N 30°14' W 093°15'1 2.2
2017-Sep-21 21:31N 30°13' W 093°15'0 0.0
2017-Sep-21 21:01N 30°13' W 093°15'0 0.0
2017-Sep-21 20:30N 30°13' W 093°15'0 0.0
2017-Sep-21 20:00N 30°13' W 093°15'0 0.8
2017-Sep-21 19:27N 30°13' W 093°15'0 0.0
2017-Sep-21 19:00N 30°13' W 093°15'0 0.0
2017-Sep-21 18:31N 30°13' W 093°15'0 0.0
2017-Sep-21 18:01N 30°13' W 093°15'0 0.0
2017-Sep-21 17:30N 30°13' W 093°15'0 0.0
2017-Sep-21 17:00N 30°13' W 093°15'0 0.0
2017-Sep-21 16:24N 30°13' W 093°15'0 0.0
2017-Sep-21 16:01N 30°13' W 093°15'0 0.0
2017-Sep-21 15:30N 30°13' W 093°15'0 0.0
2017-Sep-21 15:01N 30°13' W 093°15'0 0.0
2017-Sep-21 14:30N 30°13' W 093°15'1 1.1
2017-Sep-21 14:01N 30°13' W 093°16'4 7.7
2017-Sep-21 13:30N 30°10' W 093°19'0 0.6
2017-Sep-21 13:01N 30°10' W 093°19'1 1.4
2017-Sep-21 12:30N 30°11' W 093°19'0 0.1
2017-Sep-21 12:00N 30°11' W 093°19'3 6.3
2017-Sep-21 11:31N 30°12' W 093°16'1 1.7
2017-Sep-21 11:00N 30°13' W 093°15'0 0.0
2017-Sep-21 10:30N 30°13' W 093°15'0 0.0
2017-Sep-21 10:01N 30°13' W 093°15'0 0.0
2017-Sep-21 09:30N 30°13' W 093°15'0 0.0
2017-Sep-21 09:00N 30°13' W 093°15'0 0.0
2017-Sep-21 08:31N 30°13' W 093°15'0 0.0
2017-Sep-21 08:01N 30°13' W 093°15'0 0.0
2017-Sep-21 07:30N 30°13' W 093°15'0 0.0
2017-Sep-21 07:00N 30°13' W 093°15'0 0.0
2017-Sep-21 06:30N 30°13' W 093°15'0 0.0
2017-Sep-21 06:00N 30°13' W 093°15'0 0.0
2017-Sep-21 05:30N 30°13' W 093°15'0 0.0
2017-Sep-21 05:00N 30°13' W 093°15'0 0.0
2017-Sep-21 04:30N 30°13' W 093°15'0 0.0
2017-Sep-21 04:01N 30°13' W 093°15'0 0.0
2017-Sep-21 03:30N 30°13' W 093°15'0 0.0
2017-Sep-21 03:01N 30°13' W 093°15'0 0.0
2017-Sep-21 02:30N 30°13' W 093°15'0 0.0
2017-Sep-21 02:00N 30°13' W 093°15'0 0.0
2017-Sep-21 01:31N 30°13' W 093°15'0 0.0
2017-Sep-21 01:00N 30°13' W 093°15'0 0.0
2017-Sep-21 00:30N 30°13' W 093°15'0 0.0
2017-Sep-21 00:01N 30°13' W 093°15'0 0.0
2017-Sep-20 23:30N 30°13' W 093°15'0 0.0
2017-Sep-20 23:00N 30°13' W 093°15'0 0.0
2017-Sep-20 22:30N 30°13' W 093°15'0 0.0
2017-Sep-20 22:00N 30°13' W 093°15'0 0.0
2017-Sep-20 21:30N 30°13' W 093°15'0 0.0
2017-Sep-20 21:00N 30°13' W 093°15'0 0.0
2017-Sep-20 20:30N 30°13' W 093°15'0 0.0
2017-Sep-20 20:00N 30°13' W 093°15'0 0.0
2017-Sep-20 19:31N 30°13' W 093°15'0 0.0
2017-Sep-20 19:00N 30°13' W 093°15'0 0.0
2017-Sep-20 18:30N 30°13' W 093°15'0 0.0
2017-Sep-20 18:00N 30°13' W 093°15'0 0.0
2017-Sep-20 17:31N 30°13' W 093°15'0 0.0
2017-Sep-20 17:00N 30°13' W 093°15'0 0.0
2017-Sep-20 16:30N 30°13' W 093°15'0 0.0
2017-Sep-20 16:00N 30°13' W 093°15'0 0.0
2017-Sep-20 15:31N 30°13' W 093°15'0 0.0
2017-Sep-20 15:00N 30°13' W 093°15'0 0.0
2017-Sep-20 14:00N 30°13' W 093°15'0 0.0
2017-Sep-20 13:30N 30°13' W 093°15'0 0.0
2017-Sep-20 13:00N 30°13' W 093°15'0 0.0
2017-Sep-20 12:30N 30°13' W 093°15'0 0.0
2017-Sep-20 12:00N 30°13' W 093°15'0 0.0
2017-Sep-20 11:30N 30°13' W 093°15'0 0.0
2017-Sep-20 11:00N 30°13' W 093°15'0 0.0
2017-Sep-20 10:30N 30°13' W 093°15'0 0.0
2017-Sep-20 10:00N 30°13' W 093°15'0 0.0
2017-Sep-20 09:30N 30°13' W 093°15'0 0.0
2017-Sep-20 09:00N 30°13' W 093°15'0 0.0
2017-Sep-20 08:30N 30°13' W 093°15'0 0.0
2017-Sep-20 08:00N 30°13' W 093°15'0 0.0
2017-Sep-20 07:30N 30°13' W 093°15'0 0.0
2017-Sep-20 07:01N 30°13' W 093°15'0 0.0
2017-Sep-20 06:30N 30°13' W 093°15'0 0.0
2017-Sep-20 06:00N 30°13' W 093°15'0 0.0
2017-Sep-20 05:30N 30°13' W 093°15'0 0.0
2017-Sep-20 05:00N 30°13' W 093°15'0 0.0
2017-Sep-20 04:30N 30°13' W 093°15'0 0.0
2017-Sep-20 04:00N 30°13' W 093°15'0 0.0
2017-Sep-20 03:30N 30°13' W 093°15'0 0.0
2017-Sep-20 03:00N 30°13' W 093°15'0 0.0
2017-Sep-20 02:30N 30°13' W 093°15'0 0.0
2017-Sep-20 02:00N 30°13' W 093°15'0 0.0
2017-Sep-20 01:30N 30°13' W 093°15'0 0.0
2017-Sep-20 01:01N 30°13' W 093°15'0 0.0
2017-Sep-20 00:30N 30°13' W 093°15'0 0.0
2017-Sep-20 00:00N 30°13' W 093°15'0 0.0
2017-Sep-19 23:30N 30°13' W 093°15'0 0.0
2017-Sep-19 23:00N 30°13' W 093°15'0 0.4
2017-Sep-19 22:31N 30°13' W 093°15'0 0.0
2017-Sep-19 21:58N 30°13' W 093°15'1 2.7
2017-Sep-19 21:30N 30°12' W 093°16'0 0.1
2017-Sep-19 21:01N 30°12' W 093°16'0 0.0
2017-Sep-19 20:30N 30°12' W 093°16'0 0.0
2017-Sep-19 20:00N 30°12' W 093°16'1 2.2
2017-Sep-19 19:30N 30°13' W 093°15'0 0.0
2017-Sep-19 19:00N 30°13' W 093°15'0 0.0
2017-Sep-19 18:30N 30°13' W 093°15'0 0.0
2017-Sep-19 18:00N 30°13' W 093°15'0 0.0
2017-Sep-19 17:30N 30°13' W 093°15'0 0.0
2017-Sep-19 17:00N 30°13' W 093°15'0 0.0
2017-Sep-19 16:30N 30°13' W 093°15'0 0.0
2017-Sep-19 16:00N 30°13' W 093°15'0 0.0
2017-Sep-19 15:30N 30°13' W 093°15'0 0.0
2017-Sep-19 15:00N 30°13' W 093°15'0 0.0
2017-Sep-19 14:31N 30°13' W 093°15'0 0.0
2017-Sep-19 14:00N 30°13' W 093°15'0 0.0
2017-Sep-19 13:31N 30°13' W 093°15'0 0.0
2017-Sep-19 13:00N 30°13' W 093°15'0 0.0
2017-Sep-19 12:30N 30°13' W 093°15'0 0.0
2017-Sep-19 12:00N 30°13' W 093°15'0 0.0
2017-Sep-19 11:30N 30°13' W 093°15'0 0.0
2017-Sep-19 11:00N 30°13' W 093°15'0 0.0
2017-Sep-19 10:30N 30°13' W 093°15'0 0.0
2017-Sep-19 10:00N 30°13' W 093°15'0 0.0
2017-Sep-19 09:30N 30°13' W 093°15'0 0.0
2017-Sep-19 09:00N 30°13' W 093°15'0 0.0
2017-Sep-19 08:30N 30°13' W 093°15'0 0.0
2017-Sep-19 08:00N 30°13' W 093°15'0 0.0
2017-Sep-19 07:30N 30°13' W 093°15'0 0.0
2017-Sep-19 07:00N 30°13' W 093°15'0 0.0
2017-Sep-19 06:30N 30°13' W 093°15'0 0.0
2017-Sep-19 06:00N 30°13' W 093°15'0 0.0
2017-Sep-19 05:30N 30°13' W 093°15'0 0.0
2017-Sep-19 05:00N 30°13' W 093°15'0 0.0
2017-Sep-19 04:30N 30°13' W 093°15'0 0.0
2017-Sep-19 04:00N 30°13' W 093°15'0 0.0
2017-Sep-19 03:30N 30°13' W 093°15'0 0.0
2017-Sep-19 03:00N 30°13' W 093°15'0 0.0
2017-Sep-19 02:30N 30°13' W 093°15'0 0.0
2017-Sep-19 02:00N 30°13' W 093°15'0 0.0
2017-Sep-19 01:30N 30°13' W 093°15'0 0.0
2017-Sep-19 01:00N 30°13' W 093°15'0 0.0
2017-Sep-19 00:30N 30°13' W 093°15'0 0.0
2017-Sep-19 00:00N 30°13' W 093°15'0 0.0
2017-Sep-18 23:30N 30°13' W 093°15'0 0.0
2017-Sep-18 23:00N 30°13' W 093°15'0 0.0
2017-Sep-18 22:30N 30°13' W 093°15'0 0.0
2017-Sep-18 22:00N 30°13' W 093°15'0 0.0
2017-Sep-18 21:30N 30°13' W 093°15'0 0.0
2017-Sep-18 21:00N 30°13' W 093°15'0 0.0
2017-Sep-18 20:30N 30°13' W 093°15'0 0.0
2017-Sep-18 20:00N 30°13' W 093°15'0 0.0
2017-Sep-18 19:30N 30°13' W 093°15'0 0.0
2017-Sep-18 19:00N 30°13' W 093°15'0 0.0
2017-Sep-18 18:30N 30°13' W 093°15'0 0.0
2017-Sep-18 18:00N 30°13' W 093°15'0 0.0
2017-Sep-18 17:30N 30°13' W 093°15'0 0.0
2017-Sep-18 17:00N 30°13' W 093°15'0 0.0
2017-Sep-18 16:30N 30°13' W 093°15'0 0.0
2017-Sep-18 16:00N 30°13' W 093°15'0 0.0
2017-Sep-18 15:30N 30°13' W 093°15'0 0.0
2017-Sep-18 15:00N 30°13' W 093°15'0 0.0
2017-Sep-18 14:30N 30°13' W 093°15'0 0.0
2017-Sep-18 14:00N 30°13' W 093°15'0 0.0
2017-Sep-18 13:30N 30°13' W 093°15'0 0.0
2017-Sep-18 13:00N 30°13' W 093°15'0 0.0
2017-Sep-18 12:30N 30°13' W 093°15'0 0.0
2017-Sep-18 12:00N 30°13' W 093°15'0 0.0
2017-Sep-18 11:30N 30°13' W 093°15'0 0.0
2017-Sep-18 11:00N 30°13' W 093°15'0 0.0
2017-Sep-18 10:30N 30°13' W 093°15'0 0.0
2017-Sep-18 10:00N 30°13' W 093°15'0 0.0
2017-Sep-18 09:30N 30°13' W 093°15'0 0.0
2017-Sep-18 09:00N 30°13' W 093°15'0 0.0
2017-Sep-18 08:30N 30°13' W 093°15'0 0.0
2017-Sep-18 08:00N 30°13' W 093°15'0 0.0
2017-Sep-18 07:30N 30°13' W 093°15'0 0.0
2017-Sep-18 07:00N 30°13' W 093°15'0 0.0
2017-Sep-18 06:30N 30°13' W 093°15'0 0.0
2017-Sep-18 06:00N 30°13' W 093°15'0 0.0
2017-Sep-18 05:30N 30°13' W 093°15'0 0.0
2017-Sep-18 05:00N 30°13' W 093°15'0 0.0
2017-Sep-18 04:30N 30°13' W 093°15'0 0.0
2017-Sep-18 04:00N 30°13' W 093°15'0 0.0
2017-Sep-18 03:30N 30°13' W 093°15'0 0.0
2017-Sep-18 03:00N 30°13' W 093°15'0 0.0
2017-Sep-18 02:30N 30°13' W 093°15'0 0.0
2017-Sep-18 02:00N 30°13' W 093°15'0 0.0
2017-Sep-18 01:30N 30°13' W 093°15'0 0.0
2017-Sep-18 01:00N 30°13' W 093°15'0 0.0
2017-Sep-18 00:30N 30°13' W 093°15'0 0.0
2017-Sep-18 00:00N 30°13' W 093°15'0 0.0
2017-Sep-17 23:30N 30°13' W 093°15'0 0.0
2017-Sep-17 23:00N 30°13' W 093°15'0 0.0
2017-Sep-17 22:30N 30°13' W 093°15'0 0.0
2017-Sep-17 22:00N 30°13' W 093°15'0 0.0
2017-Sep-17 21:30N 30°13' W 093°15'0 0.0
2017-Sep-17 21:00N 30°13' W 093°15'0 0.0
2017-Sep-17 20:30N 30°13' W 093°15'0 0.0
2017-Sep-17 20:00N 30°13' W 093°15'0 0.0
2017-Sep-17 19:30N 30°13' W 093°15'0 0.0
2017-Sep-17 19:00N 30°13' W 093°15'0 0.0
2017-Sep-17 18:30N 30°13' W 093°15'0 0.0
2017-Sep-17 18:00N 30°13' W 093°15'0 0.0
2017-Sep-17 17:30N 30°13' W 093°15'0 0.0
2017-Sep-17 17:00N 30°13' W 093°15'0 0.0
2017-Sep-17 16:30N 30°13' W 093°15'0 0.0
2017-Sep-17 16:00N 30°13' W 093°15'0 0.0
2017-Sep-17 15:30N 30°13' W 093°15'0 0.0
2017-Sep-17 15:00N 30°13' W 093°15'0 0.0
2017-Sep-17 14:30N 30°13' W 093°15'0 0.0
2017-Sep-17 14:00N 30°13' W 093°15'0 0.0
2017-Sep-17 13:30N 30°13' W 093°15'0 0.0
2017-Sep-17 13:00N 30°13' W 093°15'0 0.0
2017-Sep-17 12:30N 30°13' W 093°15'0 0.0
2017-Sep-17 12:00N 30°13' W 093°15'0 0.0
2017-Sep-17 11:30N 30°13' W 093°15'0 0.0
2017-Sep-17 11:00N 30°13' W 093°15'0 0.0
2017-Sep-17 10:30N 30°13' W 093°15'0 0.0
2017-Sep-17 10:00N 30°13' W 093°15'0 0.0
2017-Sep-17 09:30N 30°13' W 093°15'0 0.0
2017-Sep-17 09:00N 30°13' W 093°15'0 0.0
2017-Sep-17 08:30N 30°13' W 093°15'0 0.0
2017-Sep-17 08:00N 30°13' W 093°15'0 0.0
2017-Sep-17 07:30N 30°13' W 093°15'0 0.0
2017-Sep-17 07:00N 30°13' W 093°15'0 0.0
2017-Sep-17 06:30N 30°13' W 093°15'0 0.0
2017-Sep-17 06:00N 30°13' W 093°15'0 0.0
2017-Sep-17 05:30N 30°13' W 093°15'0 0.0
2017-Sep-17 04:57N 30°13' W 093°15'0 0.0
2017-Sep-17 04:30N 30°13' W 093°15'0 0.0
2017-Sep-17 04:00N 30°13' W 093°15'0 0.0
2017-Sep-17 03:30N 30°13' W 093°15'0 0.0
2017-Sep-17 03:00N 30°13' W 093°15'0 0.0
2017-Sep-17 02:30N 30°13' W 093°15'1 2.8
2017-Sep-17 02:00N 30°12' W 093°17'2 3.3
2017-Sep-17 01:30N 30°13' W 093°15'1 1.3
2017-Sep-17 00:56N 30°14' W 093°15'1 1.7
2017-Sep-17 00:30N 30°13' W 093°15'1 1.6
2017-Sep-17 00:00N 30°13' W 093°15'0 0.0
2017-Sep-16 23:30N 30°13' W 093°15'0 0.0
2017-Sep-16 23:00N 30°13' W 093°15'0 0.0
2017-Sep-16 22:30N 30°13' W 093°15'0 0.0
2017-Sep-16 22:00N 30°13' W 093°15'0 0.0
2017-Sep-16 21:30N 30°13' W 093°15'0 0.0
2017-Sep-16 21:00N 30°13' W 093°15'0 0.0
2017-Sep-16 20:30N 30°13' W 093°15'0 0.0
2017-Sep-16 20:00N 30°13' W 093°15'0 0.0
2017-Sep-16 19:30N 30°13' W 093°15'0 0.0
2017-Sep-16 19:00N 30°13' W 093°15'0 0.0
2017-Sep-16 18:30N 30°13' W 093°15'0 0.0
2017-Sep-16 18:00N 30°13' W 093°15'0 0.0
2017-Sep-16 17:30N 30°13' W 093°15'0 0.0
2017-Sep-16 17:00N 30°13' W 093°15'0 0.0
2017-Sep-16 16:30N 30°13' W 093°15'0 0.0
2017-Sep-16 16:00N 30°13' W 093°15'0 0.0
2017-Sep-16 15:30N 30°13' W 093°15'0 0.0
2017-Sep-16 15:00N 30°13' W 093°15'0 0.0
2017-Sep-16 14:30N 30°13' W 093°15'0 0.0
2017-Sep-16 14:00N 30°13' W 093°15'0 0.0
2017-Sep-16 13:30N 30°13' W 093°15'0 0.0
2017-Sep-16 13:00N 30°13' W 093°15'0 0.0
2017-Sep-16 12:30N 30°13' W 093°15'0 0.0
2017-Sep-16 12:00N 30°13' W 093°15'0 0.0
2017-Sep-16 11:30N 30°13' W 093°15'0 0.0
2017-Sep-16 11:00N 30°13' W 093°15'0 0.0
2017-Sep-16 10:30N 30°13' W 093°15'1 2.0
2017-Sep-16 10:00N 30°12' W 093°16'3 5.0
2017-Sep-16 09:30N 30°11' W 093°19'0 0.1
2017-Sep-16 09:00N 30°11' W 093°19'0 0.8
2017-Sep-16 08:30N 30°11' W 093°19'3 6.0
2017-Sep-16 08:00N 30°12' W 093°16'1 1.8
2017-Sep-16 07:30N 30°13' W 093°15'0 0.0
2017-Sep-16 07:00N 30°13' W 093°15'0 0.0
2017-Sep-16 06:30N 30°13' W 093°15'0 0.0
2017-Sep-16 06:00N 30°13' W 093°15'0 0.0
2017-Sep-16 05:30N 30°13' W 093°15'0 0.0
2017-Sep-16 05:00N 30°13' W 093°15'0 0.0
2017-Sep-16 04:30N 30°13' W 093°15'0 0.0
2017-Sep-16 04:00N 30°13' W 093°15'0 0.0
2017-Sep-16 03:30N 30°13' W 093°15'0 0.0
2017-Sep-16 03:00N 30°13' W 093°15'0 0.0
2017-Sep-16 02:30N 30°13' W 093°15'0 0.0
2017-Sep-16 02:00N 30°13' W 093°15'0 0.0
2017-Sep-16 01:28N 30°13' W 093°15'0 0.0
2017-Sep-16 01:00N 30°13' W 093°15'0 0.0
2017-Sep-16 00:30N 30°13' W 093°15'0 0.0
2017-Sep-16 00:00N 30°13' W 093°15'0 0.0
2017-Sep-15 23:30N 30°13' W 093°15'0 0.0
2017-Sep-15 23:00N 30°13' W 093°15'0 0.0
2017-Sep-15 22:30N 30°13' W 093°15'0 0.0
2017-Sep-15 22:00N 30°13' W 093°15'0 0.0
2017-Sep-15 21:30N 30°13' W 093°15'0 0.0
2017-Sep-15 21:00N 30°13' W 093°15'0 0.0
2017-Sep-15 20:30N 30°13' W 093°15'0 0.0
2017-Sep-15 20:00N 30°13' W 093°15'0 0.0
2017-Sep-15 19:30N 30°13' W 093°15'0 0.0
2017-Sep-15 19:00N 30°13' W 093°15'0 0.0
2017-Sep-15 18:30N 30°13' W 093°15'0 0.0
2017-Sep-15 18:00N 30°13' W 093°15'0 0.0
2017-Sep-15 17:30N 30°13' W 093°15'0 0.0
2017-Sep-15 17:00N 30°13' W 093°15'0 0.0
2017-Sep-15 16:30N 30°13' W 093°15'0 0.0
2017-Sep-15 16:00N 30°13' W 093°15'0 0.0
2017-Sep-15 15:30N 30°13' W 093°15'0 0.0
2017-Sep-15 15:00N 30°13' W 093°15'0 0.0
2017-Sep-15 14:30N 30°13' W 093°15'0 0.0
2017-Sep-15 14:00N 30°13' W 093°15'0 0.0
2017-Sep-15 13:30N 30°13' W 093°15'0 0.0
2017-Sep-15 13:00N 30°13' W 093°15'0 0.0
2017-Sep-15 12:30N 30°13' W 093°15'0 0.0
2017-Sep-15 12:00N 30°13' W 093°15'0 0.0
2017-Sep-15 11:30N 30°13' W 093°15'0 0.0
2017-Sep-15 11:00N 30°13' W 093°15'0 0.0
2017-Sep-15 10:30N 30°13' W 093°15'0 0.0
2017-Sep-15 10:00N 30°13' W 093°15'0 0.0
2017-Sep-15 09:30N 30°13' W 093°15'0 0.0
2017-Sep-15 09:00N 30°13' W 093°15'0 0.0
2017-Sep-15 08:30N 30°13' W 093°15'0 0.0
2017-Sep-15 08:00N 30°13' W 093°15'0 0.0
2017-Sep-15 07:30N 30°13' W 093°15'0 0.0
2017-Sep-15 07:00N 30°13' W 093°15'0 0.0
2017-Sep-15 06:30N 30°13' W 093°15'0 0.0
2017-Sep-15 06:00N 30°13' W 093°15'0 0.0
2017-Sep-15 05:30N 30°13' W 093°15'0 0.0
2017-Sep-15 05:00N 30°13' W 093°15'0 0.0
2017-Sep-15 04:30N 30°13' W 093°15'0 0.0
2017-Sep-15 04:00N 30°13' W 093°15'0 0.0
2017-Sep-15 03:30N 30°13' W 093°15'0 0.0
2017-Sep-15 03:00N 30°13' W 093°15'0 0.0
2017-Sep-15 02:30N 30°13' W 093°15'0 0.0
2017-Sep-15 02:00N 30°13' W 093°15'0 0.0
2017-Sep-15 01:30N 30°13' W 093°15'0 0.0
2017-Sep-15 01:00N 30°13' W 093°15'0 0.0
2017-Sep-15 00:30N 30°13' W 093°15'0 0.0
2017-Sep-15 00:00N 30°13' W 093°15'3 5.9
2017-Sep-14 23:30N 30°11' W 093°18'1 1.1
2017-Sep-14 23:00N 30°11' W 093°19'0 0.0
2017-Sep-14 22:30N 30°11' W 093°19'0 0.2
2017-Sep-14 22:00N 30°11' W 093°19'1 2.6
2017-Sep-14 21:30N 30°10' W 093°19'0 0.0
2017-Sep-14 21:00N 30°10' W 093°19'3 5.6
2017-Sep-14 20:30N 30°12' W 093°17'2 4.0
2017-Sep-14 20:00N 30°13' W 093°15'0 0.0
2017-Sep-14 19:30N 30°13' W 093°15'  

Dump ship's entire track history